Time;durP1;ratioP1;P1;durP2;ratioP2;P2;SDS_P1;SDS_P2;PMS_P1;PMS_P2;Temp;Humidity;BMP_temperature;BMP_pressure;BME280_temperature;BME280_humidity;BME280_pressure;Samples;Min_cycle;Max_cycle;Signal;HPM_P1;HPM_P2
2023/08/23 00:01:46;;;;;;;5.50;1.52;;;24.00;68.50;;;;;;5050751;28;20041;-67
2023/08/23 00:04:12;;;;;;;3.67;1.10;;;24.00;68.50;;;;;;5066084;28;20056;-67
2023/08/23 00:06:37;;;;;;;4.90;1.40;;;24.00;68.50;;;;;;5052010;28;20116;-67
2023/08/23 00:09:04;;;;;;;3.45;1.13;;;24.00;68.50;;;;;;5062728;28;20102;-67
2023/08/23 00:11:30;;;;;;;3.42;1.20;;;24.00;69.10;;;;;;5054568;28;20110;-67
2023/08/23 00:13:55;;;;;;;3.45;1.15;;;24.00;68.50;;;;;;5070625;28;20468;-67
2023/08/23 00:16:21;;;;;;;3.33;1.33;;;24.00;68.50;;;;;;5055597;28;20044;-66
2023/08/23 00:18:49;;;;;;;4.25;1.33;;;24.00;68.50;;;;;;5063751;28;20043;-67
2023/08/23 00:21:14;;;;;;;3.33;1.50;;;24.00;68.60;;;;;;5056168;28;20041;-67
2023/08/23 00:23:40;;;;;;;2.65;1.10;;;24.00;68.60;;;;;;5068464;28;20796;-67
2023/08/23 00:26:06;;;;;;;2.17;0.98;;;24.00;68.60;;;;;;5058931;28;20041;-67
2023/08/23 00:28:31;;;;;;;4.65;1.30;;;24.00;68.60;;;;;;5064048;28;20110;-66
2023/08/23 00:30:57;;;;;;;4.72;1.10;;;24.00;68.60;;;;;;5054707;28;20104;-67
2023/08/23 00:33:22;;;;;;;3.10;1.20;;;24.00;68.50;;;;;;5066061;28;20037;-67
2023/08/23 00:35:48;;;;;;;4.60;1.27;;;24.00;68.60;;;;;;5060669;28;20049;-67
2023/08/23 00:38:14;;;;;;;4.03;1.13;;;24.00;68.60;;;;;;5061600;28;20049;-67
2023/08/23 00:40:39;;;;;;;4.25;1.25;;;24.00;68.60;;;;;;5055536;28;20050;-67
2023/08/23 00:43:07;;;;;;;2.92;1.20;;;23.90;68.60;;;;;;5061773;28;20028;-67
2023/08/23 00:45:36;;;;;;;;;;;23.90;68.60;;;;;;5063797;28;20094;-67
2023/08/23 00:48:03;;;;;;;3.15;1.20;;;23.90;68.50;;;;;;5061026;28;19931;-67
2023/08/23 00:50:32;;;;;;;3.15;1.30;;;23.90;68.60;;;;;;5056426;28;20052;-67
2023/08/23 00:52:57;;;;;;;2.35;0.98;;;23.90;68.60;;;;;;5059257;28;20033;-66
2023/08/23 00:55:23;;;;;;;3.17;1.02;;;23.90;68.60;;;;;;5064379;28;20447;-67
2023/08/23 00:57:50;;;;;;;2.03;1.00;;;23.90;68.60;;;;;;5074921;28;20037;-67
2023/08/23 01:00:16;;;;;;;3.22;1.30;;;23.90;68.60;;;;;;5056914;28;20048;-68
2023/08/23 01:02:41;;;;;;;2.33;1.30;;;23.90;68.60;;;;;;5040269;28;20574;-68
2023/08/23 01:05:07;;;;;;;2.60;1.10;;;23.90;68.60;;;;;;5066819;28;20465;-68
2023/08/23 01:07:37;;;;;;;3.45;1.17;;;23.90;68.60;;;;;;5054652;28;20037;-68
2023/08/23 01:10:10;;;;;;;3.42;1.23;;;23.90;68.60;;;;;;5043867;28;20040;-67
2023/08/23 01:12:45;;;;;;;2.83;1.15;;;23.90;68.60;;;;;;5054464;28;20056;-68
2023/08/23 01:15:11;;;;;;;3.13;1.00;;;23.90;68.60;;;;;;5049465;28;20116;-67
2023/08/23 01:17:44;;;;;;;2.20;1.10;;;23.90;68.60;;;;;;5055087;28;20048;-68
2023/08/23 01:20:10;;;;;;;2.47;1.30;;;23.90;68.60;;;;;;5041000;28;20385;-67
2023/08/23 01:22:38;;;;;;;2.10;1.05;;;23.80;68.60;;;;;;5054364;28;20041;-68
2023/08/23 01:25:04;;;;;;;3.20;1.00;;;23.80;68.60;;;;;;5051347;28;20037;-67
2023/08/23 01:27:32;;;;;;;3.38;1.13;;;23.80;68.60;;;;;;5053087;28;20048;-67
2023/08/23 01:29:58;;;;;;;3.35;1.20;;;23.80;68.60;;;;;;5053387;28;20048;-67
2023/08/23 01:32:34;;;;;;;3.13;1.20;;;23.80;68.60;;;;;;5053775;28;20045;-67
2023/08/23 01:35:07;;;;;;;3.63;1.00;;;23.80;68.60;;;;;;5055468;28;20066;-67
2023/08/23 01:37:35;;;;;;;2.15;1.00;;;23.80;68.60;;;;;;5044101;28;20099;-67
2023/08/23 01:40:01;;;;;;;3.90;1.20;;;23.80;68.70;;;;;;5053654;28;20053;-68
2023/08/23 01:42:26;;;;;;;2.05;1.08;;;23.80;68.70;;;;;;5052686;28;20041;-67
2023/08/23 01:44:52;;;;;;;3.28;1.20;;;23.80;68.70;;;;;;5068842;28;20143;-67
2023/08/23 01:47:18;;;;;;;3.53;0.90;;;23.80;68.70;;;;;;5036609;28;20090;-67
2023/08/23 01:49:44;;;;;;;2.50;1.10;;;23.80;68.70;;;;;;5060850;28;20060;-67
2023/08/23 01:52:09;;;;;;;3.28;1.10;;;23.80;68.70;;;;;;5036716;28;20041;-68
2023/08/23 01:54:35;;;;;;;3.00;1.10;;;23.80;68.70;;;;;;5069464;28;20044;-67
2023/08/23 01:57:01;;;;;;;1.70;0.98;;;23.80;68.70;;;;;;5053420;28;20075;-67
2023/08/23 01:59:26;;;;;;;2.85;1.10;;;23.80;68.70;;;;;;5060964;28;20481;-68
2023/08/23 02:01:52;;;;;;;2.80;1.17;;;23.80;68.70;;;;;;5063467;28;20057;-68
2023/08/23 02:04:19;;;;;;;2.70;1.20;;;23.70;68.60;;;;;;5073285;28;20076;-67
2023/08/23 02:06:45;;;;;;;2.22;1.20;;;23.80;68.70;;;;;;5054495;28;20041;-67
2023/08/23 02:09:10;;;;;;;2.53;1.17;;;23.80;68.70;;;;;;5059283;28;20163;-68
2023/08/23 02:11:36;;;;;;;3.45;1.30;;;23.70;68.60;;;;;;5053986;28;20048;-68
2023/08/23 02:14:03;;;;;;;2.20;1.00;;;23.70;68.60;;;;;;5063395;28;20062;-68
2023/08/23 02:16:28;;;;;;;2.13;1.00;;;23.80;68.70;;;;;;5056838;28;20040;-67
2023/08/23 02:18:55;;;;;;;2.33;1.05;;;23.80;68.70;;;;;;5061271;28;20048;-67
2023/08/23 02:21:20;;;;;;;2.30;1.00;;;23.70;68.60;;;;;;5052738;28;20524;-68
2023/08/23 02:23:46;;;;;;;2.58;1.13;;;23.70;68.70;;;;;;5059179;28;20072;-68
2023/08/23 02:26:11;;;;;;;2.15;1.10;;;23.70;68.70;;;;;;5061857;28;20044;-67
2023/08/23 02:28:37;;;;;;;3.10;1.20;;;23.70;68.60;;;;;;5059421;28;20473;-67
2023/08/23 02:31:03;;;;;;;2.88;1.10;;;23.70;68.70;;;;;;5052789;28;20083;-67
2023/08/23 02:33:29;;;;;;;2.58;1.30;;;23.70;68.70;;;;;;5056876;28;20040;-68
2023/08/23 02:35:54;;;;;;;2.03;0.80;;;23.70;68.70;;;;;;5062572;28;20053;-67
2023/08/23 02:38:20;;;;;;;2.47;1.02;;;23.70;68.70;;;;;;5055634;28;20033;-67
2023/08/23 02:40:45;;;;;;;2.30;1.00;;;23.70;68.70;;;;;;5056133;28;20555;-67
2023/08/23 02:43:11;;;;;;;1.85;0.98;;;23.70;68.60;;;;;;5053358;28;20045;-68
2023/08/23 02:45:40;;;;;;;2.38;1.00;;;23.70;68.70;;;;;;5066737;28;20078;-67
2023/08/23 02:48:09;;;;;;;2.30;1.00;;;23.70;68.70;;;;;;5053248;28;20555;-68
2023/08/23 02:50:35;;;;;;;2.03;0.95;;;23.70;68.70;;;;;;5059310;28;20076;-68
2023/08/23 02:53:00;;;;;;;1.70;1.00;;;23.70;68.70;;;;;;5052725;28;20489;-67
2023/08/23 02:55:26;;;;;;;1.73;1.10;;;23.70;68.70;;;;;;5068504;28;20045;-67
2023/08/23 02:57:51;;;;;;;1.90;1.10;;;23.70;68.60;;;;;;5052955;28;20048;-67
2023/08/23 03:00:17;;;;;;;1.95;1.00;;;23.70;68.70;;;;;;5059374;28;20036;-68
2023/08/23 03:02:43;;;;;;;1.83;1.10;;;23.70;68.60;;;;;;5053119;28;20049;-67
2023/08/23 03:05:08;;;;;;;3.38;1.30;;;23.70;68.70;;;;;;5066612;28;20076;-67
2023/08/23 03:07:34;;;;;;;1.67;1.05;;;23.70;68.60;;;;;;5060856;28;20041;-67
2023/08/23 03:10:00;;;;;;;2.17;1.10;;;23.70;68.70;;;;;;5059738;28;20399;-68
2023/08/23 03:12:25;;;;;;;3.30;1.17;;;23.60;68.60;;;;;;5052184;28;20037;-67
2023/08/23 03:14:51;;;;;;;1.73;0.95;;;23.60;68.60;;;;;;5065691;28;20045;-67
2023/08/23 03:17:16;;;;;;;1.80;1.02;;;23.60;68.60;;;;;;5054697;28;20136;-67
2023/08/23 03:19:42;;;;;;;1.77;0.90;;;23.60;68.60;;;;;;5058819;28;20095;-67
2023/08/23 03:22:08;;;;;;;3.65;1.13;;;23.60;68.60;;;;;;5052742;28;20068;-67
2023/08/23 03:24:33;;;;;;;2.70;1.05;;;23.60;68.60;;;;;;5063573;28;20044;-67
2023/08/23 03:26:59;;;;;;;1.90;1.00;;;23.60;68.60;;;;;;5056722;28;20043;-67
2023/08/23 03:29:24;;;;;;;1.90;1.00;;;23.60;68.60;;;;;;5059980;28;20373;-67
2023/08/23 03:31:50;;;;;;;1.30;0.80;;;23.60;68.60;;;;;;5050875;28;20044;-67
2023/08/23 03:34:15;;;;;;;2.50;1.10;;;23.60;68.60;;;;;;5059539;28;20381;-67
2023/08/23 03:36:41;;;;;;;1.80;0.90;;;23.60;68.60;;;;;;5058326;28;20063;-67
2023/08/23 03:39:07;;;;;;;1.70;0.90;;;23.50;68.60;;;;;;5057611;28;20047;-68
2023/08/23 03:41:32;;;;;;;2.15;0.90;;;23.60;68.60;;;;;;5052225;28;20408;-67
2023/08/23 03:43:58;;;;;;;1.67;1.10;;;23.60;68.60;;;;;;5056146;28;20043;-68
2023/08/23 03:46:24;;;;;;;2.50;1.00;;;23.60;68.60;;;;;;5062146;28;20041;-68
2023/08/23 03:48:50;;;;;;;2.10;1.33;;;23.60;68.60;;;;;;5054254;28;20093;-68
2023/08/23 03:51:15;;;;;;;1.48;0.90;;;23.60;68.60;;;;;;5055679;28;20135;-68
2023/08/23 03:53:41;;;;;;;2.13;1.10;;;23.50;68.60;;;;;;5053834;28;20051;-68
2023/08/23 03:56:08;;;;;;;1.45;0.80;;;23.60;68.70;;;;;;5065215;28;20045;-68
2023/08/23 03:58:36;;;;;;;1.80;1.10;;;23.50;68.60;;;;;;5052664;28;20080;-68
2023/08/23 04:01:02;;;;;;;2.50;1.23;;;23.50;68.60;;;;;;5061940;28;20537;-67
2023/08/23 04:03:28;;;;;;;2.42;1.10;;;23.60;68.70;;;;;;5064318;28;20496;-68
2023/08/23 04:05:53;;;;;;;2.60;1.00;;;23.60;68.70;;;;;;5066606;28;20043;-68
2023/08/23 04:08:19;;;;;;;2.30;0.80;;;23.60;68.70;;;;;;5051902;28;20036;-68
2023/08/23 04:10:51;;;;;;;1.95;1.10;;;23.50;68.60;;;;;;5057932;28;20499;-68
2023/08/23 04:13:16;;;;;;;2.58;1.08;;;23.50;68.70;;;;;;5050856;28;20044;-68
2023/08/23 04:15:43;;;;;;;1.63;1.05;;;23.50;68.60;;;;;;5065131;28;20044;-68
2023/08/23 04:18:08;;;;;;;1.40;0.90;;;23.50;68.70;;;;;;5050809;28;20432;-68
2023/08/23 04:20:34;;;;;;;2.28;0.82;;;23.50;68.60;;;;;;5058654;28;20041;-68
2023/08/23 04:22:59;;;;;;;1.75;0.88;;;23.50;68.70;;;;;;5049828;28;20083;-67
2023/08/23 04:25:25;;;;;;;1.75;1.10;;;23.50;68.70;;;;;;5066641;28;20049;-67
2023/08/23 04:27:51;;;;;;;2.78;1.10;;;23.50;68.70;;;;;;5051546;28;20457;-68
2023/08/23 04:30:17;;;;;;;2.28;1.08;;;23.50;68.70;;;;;;5058128;28;20056;-67
2023/08/23 04:32:42;;;;;;;1.52;1.00;;;23.50;68.70;;;;;;5050362;28;20420;-67
2023/08/23 04:35:08;;;;;;;2.13;1.10;;;23.50;68.70;;;;;;5063025;28;20048;-68
2023/08/23 04:37:34;;;;;;;2.63;1.00;;;23.50;68.70;;;;;;5054677;28;20053;-67
2023/08/23 04:39:59;;;;;;;1.92;1.00;;;23.50;68.60;;;;;;5058373;28;20118;-68
2023/08/23 04:42:25;;;;;;;1.73;0.90;;;23.50;68.70;;;;;;5051755;28;20164;-67
2023/08/23 04:44:50;;;;;;;1.73;0.90;;;23.50;68.70;;;;;;5058123;28;20048;-68
2023/08/23 04:47:16;;;;;;;2.00;1.15;;;23.50;68.70;;;;;;5058891;28;20544;-68
2023/08/23 04:49:42;;;;;;;2.30;1.20;;;23.50;68.70;;;;;;5057952;28;20041;-67
2023/08/23 04:52:08;;;;;;;1.70;1.10;;;23.50;68.70;;;;;;5050889;28;20052;-68
2023/08/23 04:54:34;;;;;;;1.98;1.10;;;23.50;68.70;;;;;;5059740;28;20036;-67
2023/08/23 04:56:59;;;;;;;2.80;1.10;;;23.50;68.70;;;;;;5065009;28;20086;-67
2023/08/23 04:59:25;;;;;;;2.03;1.00;;;23.50;68.70;;;;;;5058919;28;20037;-67
2023/08/23 05:01:50;;;;;;;3.15;1.35;;;23.50;68.70;;;;;;5056652;28;20037;-68
2023/08/23 05:04:18;;;;;;;3.35;1.20;;;23.40;68.70;;;;;;5064776;28;20045;-67
2023/08/23 05:06:43;;;;;;;2.33;1.20;;;23.50;68.70;;;;;;5066478;28;20037;-68
2023/08/23 05:09:09;;;;;;;2.30;1.15;;;23.50;68.70;;;;;;5055334;28;20378;-67
2023/08/23 05:11:34;;;;;;;2.72;1.27;;;23.50;68.80;;;;;;5060525;28;20080;-67
2023/08/23 05:14:00;;;;;;;2.38;1.17;;;23.40;68.70;;;;;;5052560;28;20079;-67
2023/08/23 05:16:26;;;;;;;2.33;1.10;;;23.40;68.70;;;;;;5070121;28;20045;-67
2023/08/23 05:18:51;;;;;;;2.03;1.17;;;23.40;68.70;;;;;;5052815;28;20029;-67
2023/08/23 05:21:17;;;;;;;1.80;1.13;;;23.40;68.70;;;;;;5061565;28;20072;-67
2023/08/23 05:23:42;;;;;;;2.30;1.20;;;23.40;68.70;;;;;;5053443;28;20103;-67
2023/08/23 05:26:08;;;;;;;2.08;1.10;;;23.40;68.70;;;;;;5068691;28;20041;-67
2023/08/23 05:28:33;;;;;;;2.38;1.27;;;23.40;69.30;;;;;;5053504;28;20040;-67
2023/08/23 05:31:00;;;;;;;1.95;1.10;;;23.40;68.70;;;;;;5059928;28;20133;-68
2023/08/23 05:33:26;;;;;;;2.22;1.10;;;23.40;68.70;;;;;;5054343;28;20053;-68
2023/08/23 05:35:51;;;;;;;2.47;1.17;;;23.40;68.70;;;;;;5068420;28;20060;-67
2023/08/23 05:38:19;;;;;;;1.65;1.20;;;23.40;68.70;;;;;;5055756;28;20416;-67
2023/08/23 05:40:45;;;;;;;2.00;1.10;;;23.40;68.70;;;;;;5059867;28;20037;-68
2023/08/23 05:43:11;;;;;;;3.20;1.40;;;23.40;68.80;;;;;;5053682;28;20053;-68
2023/08/23 05:45:36;;;;;;;3.10;1.20;;;23.40;68.80;;;;;;5065681;28;20047;-68
2023/08/23 05:48:02;;;;;;;2.63;1.35;;;23.40;68.80;;;;;;5056476;28;20049;-68
2023/08/23 05:50:28;;;;;;;2.25;1.15;;;23.40;68.80;;;;;;5061084;28;20111;-68
2023/08/23 05:52:53;;;;;;;2.05;1.25;;;23.40;68.80;;;;;;5054122;28;20044;-68
2023/08/23 05:55:19;;;;;;;2.30;1.30;;;23.40;68.80;;;;;;5061970;28;20090;-68
2023/08/23 05:57:44;;;;;;;2.65;1.30;;;23.40;68.80;;;;;;5060638;28;20484;-68
2023/08/23 06:00:11;;;;;;;1.80;1.00;;;23.40;68.80;;;;;;5061408;28;20052;-68
2023/08/23 06:02:36;;;;;;;1.38;0.88;;;23.40;68.80;;;;;;5051944;28;20052;-68
2023/08/23 06:05:03;;;;;;;1.50;1.10;;;23.40;68.80;;;;;;5059014;28;20048;-67
2023/08/23 06:07:29;;;;;;;2.22;1.38;;;23.40;68.80;;;;;;5063600;28;20047;-65
2023/08/23 06:09:54;;;;;;;2.42;1.20;;;23.40;68.90;;;;;;5056977;28;20033;-68
2023/08/23 06:12:20;;;;;;;2.10;1.27;;;23.40;68.90;;;;;;5056693;28;20473;-67
2023/08/23 06:14:47;;;;;;;2.40;1.40;;;23.40;68.80;;;;;;5056487;28;20052;-67
2023/08/23 06:17:12;;;;;;;3.22;1.77;;;23.40;68.90;;;;;;5064440;28;20064;-67
2023/08/23 06:19:38;;;;;;;5.40;1.77;;;23.40;69.00;;;;;;5053930;28;20393;-67
2023/08/23 06:22:03;;;;;;;4.07;1.80;;;23.40;69.00;;;;;;5059028;28;20481;-67
2023/08/23 06:24:29;;;;;;;3.75;1.90;;;23.40;69.70;;;;;;5052629;28;20037;-67
2023/08/23 06:26:55;;;;;;;3.83;1.55;;;23.50;69.20;;;;;;5067546;28;20143;-66
2023/08/23 06:29:20;;;;;;;1.90;1.42;;;23.40;69.20;;;;;;5051834;28;20481;-65
2023/08/23 06:31:46;;;;;;;3.22;1.77;;;23.50;69.30;;;;;;5060384;28;20073;-67
2023/08/23 06:34:11;;;;;;;3.58;1.55;;;23.50;69.30;;;;;;5053411;28;20049;-66
2023/08/23 06:36:37;;;;;;;3.33;1.50;;;23.50;69.30;;;;;;5067395;28;20053;-68
2023/08/23 06:39:02;;;;;;;4.05;1.60;;;23.50;69.30;;;;;;5053394;28;20037;-67
2023/08/23 06:41:28;;;;;;;2.50;1.25;;;23.50;69.30;;;;;;5065718;28;20032;-65
2023/08/23 06:44:01;;;;;;;4.00;1.40;;;23.50;69.40;;;;;;5060328;28;20060;-67
2023/08/23 06:46:27;;;;;;;3.88;1.80;;;23.50;69.50;;;;;;5068553;28;20037;-67
2023/08/23 06:48:53;;;;;;;3.78;1.52;;;23.50;69.70;;;;;;5052885;28;20047;-68
2023/08/23 06:51:20;;;;;;;3.00;1.60;;;23.50;69.70;;;;;;5059271;28;20091;-64
2023/08/23 06:53:45;;;;;;;3.65;1.90;;;23.50;69.80;;;;;;5053064;28;20686;-64
2023/08/23 06:56:11;;;;;;;8.30;4.18;;;23.50;69.80;;;;;;5063681;28;20051;-71
2023/08/23 06:58:37;;;;;;;9.60;4.70;;;23.50;69.50;;;;;;5054619;28;20048;-65
2023/08/23 07:01:05;;;;;;;10.73;5.18;;;23.50;69.00;;;;;;5059271;28;20029;-65
2023/08/23 07:03:31;;;;;;;;;;;23.50;68.80;;;;;;5054451;28;20083;-66
2023/08/23 07:05:57;;;;;;;12.02;5.68;;;23.40;68.40;;;;;;5060517;28;19916;-64
2023/08/23 07:08:23;;;;;;;10.02;5.95;;;23.40;68.70;;;;;;5056285;28;20067;-64
2023/08/23 07:10:48;;;;;;;8.35;5.72;;;23.30;68.50;;;;;;5059420;28;20040;-64
2023/08/23 07:13:14;;;;;;;9.50;5.75;;;23.40;68.50;;;;;;5051734;28;20037;-64
2023/08/23 07:15:40;;;;;;;9.68;6.20;;;23.30;68.50;;;;;;5057652;28;20040;-64
2023/08/23 07:18:07;;;;;;;10.50;5.72;;;23.30;68.50;;;;;;5059844;28;20510;-64
2023/08/23 07:20:33;;;;;;;14.02;6.03;;;23.30;68.50;;;;;;5056719;28;20115;-64
2023/08/23 07:22:58;;;;;;;10.48;6.13;;;23.30;68.50;;;;;;5052536;28;20132;-65
2023/08/23 07:25:24;;;;;;;12.70;5.45;;;23.30;68.50;;;;;;5056182;28;20040;-64
2023/08/23 07:27:50;;;;;;;8.93;4.78;;;23.30;68.50;;;;;;5061684;28;20057;-64
2023/08/23 07:30:16;;;;;;;9.38;4.43;;;23.30;68.60;;;;;;5066650;28;20040;-67
2023/08/23 07:32:42;;;;;;;9.50;4.60;;;23.30;68.80;;;;;;5071749;28;20044;-66
2023/08/23 07:35:08;;;;;;;7.57;3.92;;;23.30;68.80;;;;;;5072729;28;20048;-72
2023/08/23 07:37:34;;;;;;;7.82;3.88;;;23.30;68.90;;;;;;5071000;28;20059;-67
2023/08/23 07:39:59;;;;;;;7.80;3.10;;;23.30;68.90;;;;;;5071899;28;20045;-68
2023/08/23 07:42:27;;;;;;;8.07;3.40;;;23.40;68.90;;;;;;5071187;28;20068;-69
2023/08/23 07:44:53;;;;;;;6.75;3.42;;;23.40;68.90;;;;;;5071474;28;20124;-69
2023/08/23 07:47:18;;;;;;;5.53;2.85;;;23.40;68.90;;;;;;5071993;28;20127;-69
2023/08/23 07:49:44;;;;;;;6.53;3.05;;;23.40;68.90;;;;;;5072172;28;20116;-68
2023/08/23 07:52:09;;;;;;;5.03;3.05;;;23.40;69.60;;;;;;5071442;28;20053;-68
2023/08/23 07:54:35;;;;;;;6.43;2.83;;;23.40;69.00;;;;;;5071627;28;20484;-68
2023/08/23 07:57:00;;;;;;;5.82;2.42;;;23.40;69.00;;;;;;5072603;28;20044;-68
2023/08/23 07:59:26;;;;;;;6.25;2.70;;;23.50;69.10;;;;;;5071340;28;20036;-68
2023/08/23 08:01:51;;;;;;;7.95;2.50;;;23.50;69.10;;;;;;5071536;28;20041;-68
2023/08/23 08:04:17;;;;;;;6.88;2.70;;;23.50;69.10;;;;;;5072648;28;20051;-68
2023/08/23 08:06:44;;;;;;;6.07;2.90;;;23.50;69.10;;;;;;5072072;28;20131;-68
2023/08/23 08:09:10;;;;;;;4.97;2.42;;;23.50;69.10;;;;;;5071708;28;20489;-69
2023/08/23 08:11:35;;;;;;;5.88;2.30;;;23.50;69.20;;;;;;5072556;28;20041;-69
2023/08/23 08:14:01;;;;;;;7.65;2.63;;;23.50;69.30;;;;;;5072428;28;20040;-68
2023/08/23 08:16:26;;;;;;;5.78;2.30;;;23.50;69.20;;;;;;5071595;28;20047;-68
2023/08/23 08:18:52;;;;;;;5.43;2.20;;;23.50;69.10;;;;;;5072049;28;20040;-68
2023/08/23 08:21:19;;;;;;;5.82;1.98;;;23.50;69.20;;;;;;5072382;28;20041;-68
2023/08/23 08:23:46;;;;;;;4.70;1.90;;;23.50;69.20;;;;;;5071174;28;20553;-69
2023/08/23 08:26:13;;;;;;;5.43;2.40;;;23.50;69.30;;;;;;5072591;28;20052;-69
2023/08/23 08:28:43;;;;;;;5.82;2.20;;;23.50;69.30;;;;;;5073450;28;20298;-68
2023/08/23 08:31:13;;;;;;;4.03;2.22;;;23.50;69.30;;;;;;5076082;28;20442;-68
2023/08/23 08:33:39;;;;;;;7.63;2.20;;;23.50;69.30;;;;;;5074640;28;20040;-69
2023/08/23 08:36:05;;;;;;;4.85;2.10;;;23.60;69.30;;;;;;5073626;28;20052;-68
2023/08/23 08:38:30;;;;;;;3.65;2.00;;;23.50;69.30;;;;;;5074591;28;20090;-69
2023/08/23 08:40:56;;;;;;;4.93;2.20;;;23.60;69.40;;;;;;5075534;28;20083;-69
2023/08/23 08:43:22;;;;;;;3.30;1.98;;;23.60;69.40;;;;;;5073989;28;20090;-69
2023/08/23 08:45:47;;;;;;;5.43;2.22;;;23.60;69.40;;;;;;5058228;28;20067;-69
2023/08/23 08:48:13;;;;;;;3.20;1.80;;;23.60;69.40;;;;;;5057548;28;20407;-69
2023/08/23 08:50:38;;;;;;;3.88;2.20;;;23.60;69.40;;;;;;5073131;28;20495;-69
2023/08/23 08:53:09;;;;;;;3.75;2.08;;;23.60;69.40;;;;;;5058213;28;20109;-69
2023/08/23 08:55:35;;;;;;;4.15;1.90;;;23.60;69.50;;;;;;5075276;28;20475;-69
2023/08/23 08:58:00;;;;;;;4.78;2.20;;;23.60;69.40;;;;;;5074948;28;20045;-68
2023/08/23 09:00:26;;;;;;;3.88;1.90;;;23.60;69.40;;;;;;5041409;28;20051;-69
2023/08/23 09:02:54;;;;;;;4.82;1.90;;;23.60;69.50;;;;;;5074632;28;20519;-69
2023/08/23 09:05:22;;;;;;;3.00;1.73;;;23.60;69.40;;;;;;5074845;28;20051;-68
2023/08/23 09:07:49;;;;;;;3.15;1.88;;;23.60;69.50;;;;;;5073790;28;20048;-69
2023/08/23 09:10:14;;;;;;;5.93;2.13;;;23.60;69.50;;;;;;5074516;28;20048;-70
2023/08/23 09:12:40;;;;;;;4.30;1.90;;;23.70;69.60;;;;;;5074592;28;20036;-70
2023/08/23 09:15:06;;;;;;;2.90;1.63;;;23.60;69.50;;;;;;5074244;28;20442;-69
2023/08/23 09:17:35;;;;;;;3.40;1.80;;;23.70;69.60;;;;;;5075728;28;20040;-69
2023/08/23 09:20:07;;;;;;;3.30;1.65;;;23.70;69.60;;;;;;5074234;28;20033;-69
2023/08/23 09:22:33;;;;;;;3.95;1.80;;;23.70;69.60;;;;;;5075460;28;20067;-69
2023/08/23 09:25:05;;;;;;;2.75;1.58;;;23.70;69.60;;;;;;5073392;28;20044;-69
2023/08/23 09:27:31;;;;;;;3.25;1.70;;;23.70;69.60;;;;;;5074169;28;20064;-68
2023/08/23 09:29:58;;;;;;;3.47;1.70;;;23.70;69.60;;;;;;5073485;28;20519;-69
2023/08/23 09:32:25;;;;;;;3.38;1.75;;;23.70;69.60;;;;;;5073095;28;20132;-69
2023/08/23 09:34:51;;;;;;;4.55;1.73;;;23.70;69.60;;;;;;5074712;28;20480;-69
2023/08/23 09:37:17;;;;;;;3.47;1.50;;;23.70;69.60;;;;;;5056835;28;20121;-69
2023/08/23 09:39:42;;;;;;;2.35;1.60;;;23.70;69.60;;;;;;5071742;28;20506;-69
2023/08/23 09:42:13;;;;;;;3.92;1.70;;;23.70;69.60;;;;;;5073448;28;20059;-69
2023/08/23 09:44:43;;;;;;;3.42;1.70;;;23.70;69.60;;;;;;5057730;28;20511;-69
2023/08/23 09:47:17;;;;;;;3.15;1.50;;;23.70;69.60;;;;;;5073237;28;20036;-69
2023/08/23 09:49:46;;;;;;;3.80;1.95;;;23.70;69.60;;;;;;5075543;28;20502;-69
2023/08/23 09:52:12;;;;;;;2.28;1.48;;;23.70;69.60;;;;;;5074736;28;20040;-69
2023/08/23 09:54:56;;;;;;;4.40;1.60;;;23.70;69.60;;;;;;5073613;28;20039;-69
2023/08/23 09:57:21;;;;;;;2.97;1.55;;;23.70;69.60;;;;;;5073395;28;20044;-69
2023/08/23 09:59:47;;;;;;;2.45;1.40;;;23.70;70.20;;;;;;5074501;28;20048;-69
2023/08/23 10:02:14;;;;;;;4.00;2.00;;;23.70;69.60;;;;;;5056122;28;20098;-69
2023/08/23 10:04:40;;;;;;;3.20;1.70;;;23.70;69.60;;;;;;5056088;28;20048;-69
2023/08/23 10:07:07;;;;;;;5.60;2.03;;;23.70;69.60;;;;;;5073033;28;20051;-69
2023/08/23 10:09:34;;;;;;;3.15;1.48;;;23.70;69.60;;;;;;5073701;28;20041;-70
2023/08/23 10:12:00;;;;;;;2.83;1.60;;;23.70;69.60;;;;;;5073240;28;20090;-69
2023/08/23 10:14:26;;;;;;;3.03;1.45;;;23.70;69.60;;;;;;5072535;28;20036;-69
2023/08/23 10:16:52;;;;;;;3.35;1.73;;;23.70;69.60;;;;;;5055723;28;20447;-68
2023/08/23 10:19:17;;;;;;;2.50;1.83;;;23.70;69.60;;;;;;5056299;28;20538;-68
2023/08/23 10:21:43;;;;;;;3.28;1.65;;;23.70;69.60;;;;;;5038738;28;20047;-69
2023/08/23 10:24:08;;;;;;;3.83;1.50;;;23.70;69.60;;;;;;5056056;28;20543;-69
2023/08/23 10:26:45;;;;;;;4.50;1.50;;;23.80;69.60;;;;;;5074014;28;20124;-69
2023/08/23 10:29:10;;;;;;;3.63;1.60;;;23.80;69.60;;;;;;5072082;28;20053;-69
2023/08/23 10:31:36;;;;;;;2.35;1.30;;;23.70;69.60;;;;;;5073863;28;20073;-69
2023/08/23 10:34:01;;;;;;;3.90;1.73;;;23.80;69.70;;;;;;5073846;28;20108;-69
2023/08/23 10:36:28;;;;;;;2.88;1.50;;;23.70;69.60;;;;;;5071192;28;20048;-69
2023/08/23 10:38:57;;;;;;;2.53;1.25;;;23.80;69.70;;;;;;5072735;28;20053;-66
2023/08/23 10:41:25;;;;;;;2.50;1.67;;;23.80;69.70;;;;;;5073706;28;20037;-69
2023/08/23 10:43:52;;;;;;;4.00;1.60;;;23.80;69.90;;;;;;5071128;28;20507;-68
2023/08/23 10:46:19;;;;;;;2.33;1.30;;;23.80;69.90;;;;;;5073488;28;20072;-68
2023/08/23 10:48:45;;;;;;;4.53;1.65;;;23.80;69.80;;;;;;5071906;28;20040;-69
2023/08/23 10:51:14;;;;;;;2.83;1.42;;;23.80;69.70;;;;;;5072461;28;20075;-68
2023/08/23 10:53:40;;;;;;;2.55;1.48;;;23.80;69.70;;;;;;5072027;28;20041;-69
2023/08/23 10:56:07;;;;;;;2.00;1.40;;;23.80;69.60;;;;;;5073556;28;20041;-69
2023/08/23 10:58:33;;;;;;;2.55;1.50;;;23.80;69.60;;;;;;5072659;28;20521;-69
2023/08/23 11:01:07;;;;;;;2.85;1.40;;;23.80;69.60;;;;;;5073537;28;20552;-69
2023/08/23 11:03:34;;;;;;;3.45;1.40;;;23.80;69.70;;;;;;5050035;28;20037;-69
2023/08/23 11:06:00;;;;;;;2.40;1.50;;;23.80;69.60;;;;;;5066104;28;20056;-68
2023/08/23 11:08:25;;;;;;;3.05;1.88;;;23.80;69.60;;;;;;5070303;28;20041;-68
2023/08/23 11:10:51;;;;;;;2.55;1.48;;;23.80;69.60;;;;;;5072114;28;20052;-67
2023/08/23 11:13:16;;;;;;;2.50;1.40;;;23.80;69.70;;;;;;5072162;28;20059;-68
2023/08/23 11:15:43;;;;;;;3.47;1.55;;;23.90;69.70;;;;;;5072740;28;20447;-68
2023/08/23 11:18:08;;;;;;;2.05;1.40;;;23.90;69.70;;;;;;5072473;28;20465;-68
2023/08/23 11:20:34;;;;;;;2.10;1.58;;;23.90;69.60;;;;;;5071319;28;20090;-68
2023/08/23 11:23:00;;;;;;;2.70;1.50;;;23.90;69.60;;;;;;5072000;28;20086;-68
2023/08/23 11:25:25;;;;;;;3.55;1.45;;;23.80;69.40;;;;;;5104850;28;20028;-68
2023/08/23 11:27:51;;;;;;;2.75;1.25;;;23.80;69.30;;;;;;5072909;28;20054;-68
2023/08/23 11:30:21;;;;;;;3.38;1.90;;;23.80;69.10;;;;;;5071973;28;20045;-68
2023/08/23 11:32:47;;;;;;;2.65;1.30;;;23.80;69.00;;;;;;5071584;28;20076;-68
2023/08/23 11:35:13;;;;;;;5.85;1.73;;;23.80;68.80;;;;;;5071342;28;20041;-68
2023/08/23 11:37:38;;;;;;;2.47;1.52;;;23.80;68.70;;;;;;5039171;28;20120;-68
2023/08/23 11:40:13;;;;;;;4.15;1.35;;;23.80;68.30;;;;;;5052012;28;20061;-68
2023/08/23 11:42:39;;;;;;;2.97;1.25;;;23.80;68.00;;;;;;5051064;28;20041;-68
2023/08/23 11:45:05;;;;;;;2.60;1.23;;;23.80;67.90;;;;;;5050975;28;20082;-68
2023/08/23 11:47:31;;;;;;;3.53;1.17;;;23.80;67.80;;;;;;5033862;28;20101;-68
2023/08/23 11:49:59;;;;;;;2.33;1.30;;;23.80;67.70;;;;;;5052329;28;20045;-68
2023/08/23 11:52:28;;;;;;;2.20;1.20;;;23.80;67.70;;;;;;5051279;28;20132;-68
2023/08/23 11:54:54;;;;;;;2.22;1.10;;;23.80;67.60;;;;;;5051803;28;20049;-69
2023/08/23 11:57:19;;;;;;;2.25;1.23;;;23.80;67.60;;;;;;5052741;28;20044;-69
2023/08/23 11:59:45;;;;;;;2.45;1.20;;;23.90;67.60;;;;;;5051234;28;20499;-69
2023/08/23 12:02:14;;;;;;;2.28;1.08;;;23.80;67.50;;;;;;5052572;28;20045;-68
2023/08/23 12:04:41;;;;;;;3.03;1.33;;;23.80;67.50;;;;;;5056840;28;20052;-69
2023/08/23 12:07:07;;;;;;;3.28;1.40;;;23.80;67.50;;;;;;5058359;28;20116;-68
2023/08/23 12:09:32;;;;;;;2.28;1.20;;;23.90;67.50;;;;;;5058929;28;20136;-69
2023/08/23 12:11:59;;;;;;;3.17;1.23;;;23.90;67.50;;;;;;5065927;28;20480;-69
2023/08/23 12:14:28;;;;;;;2.70;1.13;;;23.90;67.40;;;;;;5078154;28;20054;-70
2023/08/23 12:16:54;;;;;;;2.20;1.10;;;23.90;67.60;;;;;;5076924;28;20040;-69
2023/08/23 12:19:20;;;;;;;3.50;1.30;;;23.90;68.30;;;;;;5078886;28;20102;-69
2023/08/23 12:21:45;;;;;;;2.08;1.17;;;23.90;67.80;;;;;;5076417;28;20080;-69
2023/08/23 12:24:11;;;;;;;2.15;1.10;;;23.90;67.80;;;;;;5079153;28;20052;-69
2023/08/23 12:26:39;;;;;;;2.60;1.27;;;23.90;67.90;;;;;;5078660;28;20116;-68
2023/08/23 12:29:05;;;;;;;2.15;1.10;;;24.00;67.90;;;;;;5077044;28;20093;-69
2023/08/23 12:31:31;;;;;;;3.40;1.25;;;24.00;67.90;;;;;;5078993;28;20049;-71
2023/08/23 12:33:56;;;;;;;2.90;1.30;;;24.00;68.00;;;;;;5076992;28;20048;-71
2023/08/23 12:36:22;;;;;;;3.22;1.00;;;23.90;68.00;;;;;;5077544;28;20060;-71
2023/08/23 12:38:49;;;;;;;3.00;1.13;;;24.00;68.10;;;;;;5077175;28;20044;-71
2023/08/23 12:41:16;;;;;;;2.30;1.30;;;24.00;68.10;;;;;;5078817;28;20127;-71
2023/08/23 12:43:41;;;;;;;2.13;1.20;;;23.90;68.10;;;;;;5075562;28;20403;-68